Pagrindinis puslapis
METAR-TAF:

METAR-TAF

Oro uostai :

Kermanas, Iranas

platuma: 30-15N, ilguma: 056-58E, Aukštis: 1748 m

Dabartinis oras

Ataskaita buvo paskelbta 2 valandos ir 43 minutes, ne 05:00 UTC
Ramus vėjas
Temperatūra 13°C
Drėgmė 22%
Slėgis 1027 hPa
Matomumas 10 km arba daugiau
nėra debesų žemiau 1500 m ir nėra kamuolinių lietaus debesų

METAR: OIKK 260500Z 00000KT CAVOK 13/M08 Q1026 A3032

Laikas: 11:13 (07:43 UTC)

Prognozė

Ataskaita buvo paskelbta 2 valandos ir 13 minutes, ne 05:30 UTC
Prognozė galioja nuo 26 metu 06 UTC su 27 metu 12 UTC
Vėjas 4 kt iš Rytų/Pietryčių
Matomumas 10 km arba daugiau
nėra debesų žemiau 1500 m ir nėra kamuolinių lietaus debesų

TAF: OIKK 260530Z 2606/2712 11004KT CAVOK

Orai ataskaitas ir orų prognozės (METAR, TAF).

turimą stotys yra geltonos ir raudonos taškus žemėlapyje.

Perkelti pele per norėdami pamatyti stoties vardą.

Tada spustelėkite, norėdami matyti oro stebėjimo ir prognozės.

Norėdami pakeisti žemėlapį: spustelėkite ant žalios mygtukų su juodo kryžiaus žemyn,; žalią mygtuką su brūkšneliu, jei norite nutolinti; arba žalių rodyklių gretimoms žemėlapius.


METAR-TAF: